createdAt,value
2022-10-24T00:01:48.599Z,101874.70
2022-10-24T00:04:17.111Z,101872.70
2022-10-24T00:06:45.296Z,101869.00
2022-10-24T00:09:13.745Z,101869.11
2022-10-24T00:11:43.770Z,101864.18
2022-10-24T00:14:12.859Z,101861.32
2022-10-24T00:16:41.195Z,101867.80
2022-10-24T00:19:09.724Z,101870.10
2022-10-24T00:21:37.928Z,101870.42
2022-10-24T00:24:07.946Z,101871.50
2022-10-24T00:26:36.847Z,101875.95
2022-10-24T00:29:05.478Z,101878.99
2022-10-24T00:31:34.416Z,101873.41
2022-10-24T00:34:03.527Z,101867.11
2022-10-24T00:36:32.676Z,101876.91
2022-10-24T00:39:01.346Z,101884.77
2022-10-24T00:41:35.817Z,101891.30
2022-10-24T00:44:16.345Z,101895.71
2022-10-24T00:46:51.396Z,101906.38
2022-10-24T00:49:25.275Z,101913.77
2022-10-24T00:51:58.958Z,101902.71
2022-10-24T00:54:27.767Z,101895.32
2022-10-24T00:57:04.376Z,101894.02
2022-10-24T00:59:33.203Z,101898.08
2022-10-24T01:02:01.555Z,101895.05
2022-10-24T01:04:30.241Z,101896.69
2022-10-24T01:07:22.619Z,101887.96
2022-10-24T01:10:18.005Z,101885.80
2022-10-24T01:12:51.633Z,101875.83
2022-10-24T01:15:48.803Z,101878.05
2022-10-24T01:18:29.815Z,101875.06
2022-10-24T01:21:16.175Z,101878.27
2022-10-24T01:23:50.101Z,101884.48
2022-10-24T01:26:28.001Z,101880.10
2022-10-24T01:29:17.837Z,101879.67
2022-10-24T01:32:40.116Z,101879.39
2022-10-24T01:35:24.209Z,101867.44
2022-10-24T01:38:01.378Z,101864.71
2022-10-24T01:40:38.241Z,101863.48
2022-10-24T01:43:12.722Z,101858.58
2022-10-24T01:45:46.256Z,101855.23
2022-10-24T01:48:18.965Z,101852.37
2022-10-24T01:50:51.071Z,101850.08
2022-10-24T01:53:22.523Z,101849.20
2022-10-24T01:55:54.992Z,101853.02
2022-10-24T01:58:23.384Z,101861.34
2022-10-24T02:00:55.354Z,101873.29
2022-10-24T02:03:38.095Z,101874.77
2022-10-24T02:06:18.007Z,101870.38
2022-10-24T02:08:50.429Z,101874.14
2022-10-24T02:11:19.135Z,101871.48
2022-10-24T02:14:07.463Z,101873.05
2022-10-24T02:16:36.932Z,101872.69
2022-10-24T02:19:06.226Z,101874.07
2022-10-24T02:22:25.437Z,101873.14
2022-10-24T02:25:07.569Z,101874.52
2022-10-24T02:28:03.930Z,101870.38
2022-10-24T02:30:37.550Z,101869.17
2022-10-24T02:33:06.630Z,101867.23
2022-10-24T02:35:37.933Z,101868.76
2022-10-24T02:38:34.822Z,101864.42
2022-10-24T02:41:09.940Z,101863.17
2022-10-24T02:43:40.135Z,101863.20
2022-10-24T02:46:11.095Z,101863.19
2022-10-24T02:48:45.535Z,101868.63
2022-10-24T02:51:16.391Z,101874.21
2022-10-24T02:53:45.000Z,101867.45
2022-10-24T02:56:13.450Z,101866.09
2022-10-24T02:58:41.780Z,101858.48
2022-10-24T03:01:10.420Z,101850.64
2022-10-24T03:03:38.862Z,101840.92
2022-10-24T03:06:07.607Z,101836.70
2022-10-24T03:08:36.237Z,101832.87
2022-10-24T03:11:05.190Z,101830.95
2022-10-24T03:13:33.557Z,101828.34
2022-10-24T03:16:01.956Z,101830.08
2022-10-24T03:18:30.782Z,101825.35
2022-10-24T03:20:59.182Z,101818.74
2022-10-24T03:23:29.946Z,101818.41
2022-10-24T03:25:59.929Z,101820.70
2022-10-24T03:28:28.421Z,101816.20
2022-10-24T03:30:57.300Z,101814.34
2022-10-24T03:33:25.479Z,101808.30
2022-10-24T03:35:57.202Z,101801.02
2022-10-24T03:38:25.624Z,101797.19
2022-10-24T03:40:54.327Z,101791.07
2022-10-24T03:43:22.680Z,101790.55
2022-10-24T03:45:51.439Z,101783.45
2022-10-24T03:48:19.751Z,101778.41
2022-10-24T03:50:48.298Z,101778.23
2022-10-24T03:53:16.526Z,101774.12
2022-10-24T03:55:45.046Z,101763.23
2022-10-24T03:58:13.402Z,101757.18
2022-10-24T04:00:42.857Z,101763.59
2022-10-24T04:03:11.740Z,101765.70
2022-10-24T04:05:41.099Z,101756.52
2022-10-24T04:08:09.394Z,101763.95
2022-10-24T04:10:37.733Z,101774.71
2022-10-24T04:13:06.033Z,101772.36
2022-10-24T04:15:34.472Z,101771.19
2022-10-24T04:18:02.749Z,101766.86
2022-10-24T04:20:31.492Z,101760.10
2022-10-24T04:23:02.288Z,101760.77
2022-10-24T04:25:33.398Z,101759.70
2022-10-24T04:28:01.732Z,101758.34
2022-10-24T04:30:30.892Z,101750.02
2022-10-24T04:32:59.478Z,101742.06
2022-10-24T04:35:28.128Z,101741.54
2022-10-24T04:37:56.514Z,101741.17
2022-10-24T04:40:25.067Z,101741.02
2022-10-24T04:42:53.770Z,101738.60
2022-10-24T04:45:22.219Z,101735.66
2022-10-24T04:47:50.497Z,101739.34
2022-10-24T04:50:19.186Z,101749.91
2022-10-24T04:52:47.381Z,101748.90
2022-10-24T04:55:15.648Z,101755.68
2022-10-24T04:57:44.112Z,101754.10
2022-10-24T05:00:13.266Z,101749.39
2022-10-24T05:02:41.643Z,101746.95
2022-10-24T05:05:10.223Z,101739.98
2022-10-24T05:07:38.723Z,101737.74
2022-10-24T05:10:07.696Z,101734.46
2022-10-24T05:12:36.061Z,101733.78
2022-10-24T05:15:05.178Z,101735.74
2022-10-24T05:17:33.667Z,101734.20
2022-10-24T05:20:02.049Z,101722.44
2022-10-24T05:22:30.599Z,101725.03
2022-10-24T05:24:59.013Z,101726.42
2022-10-24T05:27:27.489Z,101727.84
2022-10-24T05:29:56.383Z,101732.50
2022-10-24T05:32:25.320Z,101742.77
2022-10-24T05:34:53.838Z,101747.16
2022-10-24T05:37:23.114Z,101748.60
2022-10-24T05:39:51.373Z,101752.52
2022-10-24T05:42:19.555Z,101752.41
2022-10-24T05:44:47.891Z,101749.18
2022-10-24T05:47:16.266Z,101744.02
2022-10-24T05:49:44.669Z,101744.39
2022-10-24T05:52:13.075Z,101743.71
2022-10-24T05:54:55.001Z,101743.60
2022-10-24T05:57:31.034Z,101745.17
2022-10-24T05:59:59.352Z,101747.83
2022-10-24T06:02:27.801Z,101741.77
2022-10-24T06:04:57.987Z,101738.12
2022-10-24T06:07:26.707Z,101732.02
2022-10-24T06:09:54.943Z,101723.69
2022-10-24T06:12:23.222Z,101724.52
2022-10-24T06:14:51.689Z,101726.93
2022-10-24T06:17:20.208Z,101724.69
2022-10-24T06:19:50.059Z,101721.44
2022-10-24T06:22:19.439Z,101718.84
2022-10-24T06:24:47.807Z,101725.63
2022-10-24T06:27:16.919Z,101730.83
2022-10-24T06:29:45.171Z,101729.11
2022-10-24T06:32:13.657Z,101718.22
2022-10-24T06:34:42.058Z,101721.88
2022-10-24T06:37:10.283Z,101718.55
2022-10-24T06:39:38.694Z,101722.00
2022-10-24T06:42:07.290Z,101721.65
2022-10-24T06:44:35.939Z,101703.80
2022-10-24T06:47:04.522Z,101698.77
2022-10-24T06:49:33.234Z,101698.73
2022-10-24T06:52:01.738Z,101690.45
2022-10-24T06:54:31.249Z,101699.85
2022-10-24T06:56:59.574Z,101695.55
2022-10-24T06:59:28.313Z,101691.06
2022-10-24T07:01:59.164Z,101694.54
2022-10-24T07:04:28.793Z,101687.99
2022-10-24T07:06:57.937Z,101686.58
2022-10-24T07:09:26.266Z,101672.83
2022-10-24T07:11:54.433Z,101668.09
2022-10-24T07:14:22.684Z,101665.27
2022-10-24T07:16:51.163Z,101668.61
2022-10-24T07:19:19.899Z,101669.78
2022-10-24T07:21:48.170Z,101671.30
2022-10-24T07:24:16.287Z,101664.95
2022-10-24T07:26:44.531Z,101661.42
2022-10-24T07:29:12.962Z,101661.83
2022-10-24T07:31:41.233Z,101657.60
2022-10-24T07:34:10.830Z,101647.14
2022-10-24T07:36:41.487Z,101641.50
2022-10-24T07:39:12.668Z,101634.38
2022-10-24T07:41:42.793Z,101636.45
2022-10-24T07:44:12.066Z,101626.36
2022-10-24T07:46:42.606Z,101621.91
2022-10-24T07:49:11.187Z,101617.27
2022-10-24T07:51:40.084Z,101610.58
2022-10-24T07:54:08.439Z,101611.03
2022-10-24T07:56:36.879Z,101605.75
2022-10-24T07:59:09.577Z,101602.12
2022-10-24T08:01:42.076Z,101592.90
2022-10-24T08:04:11.594Z,101586.77
2022-10-24T08:06:41.625Z,101592.25
2022-10-24T08:09:10.633Z,101587.20
2022-10-24T08:11:40.317Z,101580.23
2022-10-24T08:14:08.491Z,101576.73
2022-10-24T08:16:39.098Z,101575.70
2022-10-24T08:19:07.310Z,101568.39
2022-10-24T08:21:37.151Z,101560.87
2022-10-24T08:24:05.381Z,101555.09
2022-10-24T08:26:33.763Z,101549.95
2022-10-24T08:29:05.531Z,101553.73
2022-10-24T08:31:33.806Z,101557.89
2022-10-24T08:34:02.016Z,101558.20
2022-10-24T08:36:32.917Z,101556.27
2022-10-24T08:39:02.745Z,101551.91
2022-10-24T08:41:37.546Z,101544.94
2022-10-24T08:44:18.126Z,101532.79
2022-10-24T08:47:04.940Z,101520.66
2022-10-24T08:49:59.248Z,101509.05
2022-10-24T08:52:33.123Z,101505.88
2022-10-24T08:55:25.237Z,101506.66
2022-10-24T08:58:02.520Z,101504.17
2022-10-24T09:00:52.052Z,101514.02
2022-10-24T09:03:55.652Z,101514.98
2022-10-24T09:06:29.007Z,101511.67
2022-10-24T09:09:07.008Z,101507.01
2022-10-24T09:11:56.631Z,101495.94
2022-10-24T09:14:30.845Z,101469.39
2022-10-24T09:17:11.875Z,101445.45
2022-10-24T09:19:40.754Z,101425.16
2022-10-24T09:22:14.253Z,101419.41
2022-10-24T09:24:58.989Z,101407.06
2022-10-24T09:27:35.095Z,101384.34
2022-10-24T09:30:04.693Z,101402.86
2022-10-24T09:32:36.133Z,101397.00
2022-10-24T09:35:17.125Z,101373.98
2022-10-24T09:37:49.943Z,101374.14
2022-10-24T09:40:23.886Z,101360.13
2022-10-24T09:43:02.331Z,101361.86
2022-10-24T09:45:33.349Z,101372.96
2022-10-24T09:48:08.480Z,101371.44
2022-10-24T09:50:37.677Z,101380.11
2022-10-24T09:53:06.560Z,101373.91
2022-10-24T09:55:47.843Z,101360.05
2022-10-24T09:58:22.810Z,101347.20
2022-10-24T10:01:17.581Z,101344.71
2022-10-24T10:04:08.398Z,101341.57
2022-10-24T10:06:45.377Z,101335.36
2022-10-24T10:09:16.115Z,101320.48
2022-10-24T10:12:00.754Z,101303.17
2022-10-24T10:14:31.041Z,101293.09
2022-10-24T10:17:06.081Z,101279.70
2022-10-24T10:19:38.518Z,101287.05
2022-10-24T10:22:31.114Z,101292.68
2022-10-24T10:25:01.242Z,101289.88
2022-10-24T10:27:39.482Z,101285.51
2022-10-24T10:30:14.433Z,101284.45
2022-10-24T10:33:19.574Z,101281.67
2022-10-24T10:36:13.317Z,101279.85
2022-10-24T10:39:13.874Z,101287.22
2022-10-24T10:42:10.075Z,101295.47
2022-10-24T10:45:00.059Z,101303.59
2022-10-24T10:48:09.618Z,101289.90
2022-10-24T10:51:09.024Z,101269.05
2022-10-24T10:53:56.373Z,101256.92
2022-10-24T10:56:52.813Z,101249.80
2022-10-24T10:59:32.887Z,101258.27
2022-10-24T11:02:22.130Z,101273.27
2022-10-24T11:05:02.207Z,101283.11
2022-10-24T11:08:05.210Z,101294.17
2022-10-24T11:10:40.959Z,101290.04
2022-10-24T11:13:19.740Z,101288.67
2022-10-24T11:15:54.245Z,101289.03
2022-10-24T11:18:35.383Z,101278.86
2022-10-24T11:21:11.868Z,101271.40
2022-10-24T11:26:28.213Z,101257.48
2022-10-24T11:28:59.261Z,101256.64
2022-10-24T11:31:33.223Z,101256.63
2022-10-24T11:34:07.856Z,101258.89
2022-10-24T11:36:55.672Z,101259.25
2022-10-24T11:39:29.206Z,101270.50
2022-10-24T11:42:17.287Z,101272.38
2022-10-24T11:45:10.293Z,101266.64
2022-10-24T11:48:03.293Z,101264.80
2022-10-24T11:50:40.641Z,101258.51
2022-10-24T11:53:14.796Z,101253.89
2022-10-24T11:55:52.146Z,101249.79
2022-10-24T11:58:24.278Z,101241.35
2022-10-24T12:01:12.735Z,101239.84
2022-10-24T12:04:05.597Z,101239.52
2022-10-24T12:06:37.129Z,101248.37
2022-10-24T12:09:42.977Z,101244.91
2022-10-24T12:12:32.531Z,101237.85
2022-10-24T12:15:01.040Z,101229.70
2022-10-24T12:17:32.488Z,101219.42
2022-10-24T12:20:03.161Z,101210.20
2022-10-24T12:22:42.025Z,101196.14
2022-10-24T12:25:22.316Z,101185.29
2022-10-24T12:28:20.414Z,101178.08
2022-10-24T12:31:25.282Z,101158.62
2022-10-24T12:34:12.939Z,101141.08
2022-10-24T12:37:18.061Z,101135.46
2022-10-24T12:39:50.360Z,101135.98
2022-10-24T12:42:24.658Z,101131.90
2022-10-24T12:45:02.978Z,101121.63
2022-10-24T12:47:32.681Z,101105.62
2022-10-24T12:50:23.594Z,101106.77
2022-10-24T12:53:19.565Z,101110.52
2022-10-24T12:55:50.990Z,101116.31
2022-10-24T12:58:36.398Z,101120.59
2022-10-24T13:01:32.940Z,101116.79
2022-10-24T13:04:26.681Z,101111.02
2022-10-24T13:07:19.142Z,101110.23
2022-10-24T13:10:23.034Z,101103.27
2022-10-24T13:15:50.874Z,101092.05
2022-10-24T13:18:31.097Z,101085.16
2022-10-24T13:24:21.484Z,101082.77
2022-10-24T13:27:12.820Z,101068.39
2022-10-24T13:29:42.219Z,101067.34
2022-10-24T13:32:15.373Z,101065.23
2022-10-24T13:34:53.468Z,101057.08
2022-10-24T13:37:30.174Z,101045.81
2022-10-24T13:40:32.262Z,101046.84
2022-10-24T13:43:16.821Z,101047.02
2022-10-24T13:45:54.437Z,101038.02
2022-10-24T13:48:27.545Z,101042.17
2022-10-24T13:51:15.253Z,101032.19
2022-10-24T13:53:58.916Z,101029.46
2022-10-24T13:56:29.032Z,101029.13
2022-10-24T13:58:57.257Z,101027.56
2022-10-24T14:01:28.934Z,101027.89
2022-10-24T14:03:59.746Z,101024.42
2022-10-24T14:06:31.704Z,101022.89
2022-10-24T14:09:10.421Z,101027.05
2022-10-24T14:11:49.706Z,101027.39
2022-10-24T14:14:28.324Z,101028.30
2022-10-24T14:17:24.182Z,101034.24
2022-10-24T14:19:59.226Z,101039.47
2022-10-24T14:22:43.842Z,101042.45
2022-10-24T14:25:31.198Z,101044.92
2022-10-24T14:28:03.173Z,101044.95
2022-10-24T14:30:34.941Z,101048.61
2022-10-24T14:33:22.688Z,101055.02
2022-10-24T14:35:55.201Z,101051.61
2022-10-24T14:38:28.975Z,101054.05
2022-10-24T14:41:08.474Z,101053.71
2022-10-24T14:43:42.931Z,101054.42
2022-10-24T14:46:26.574Z,101056.69
2022-10-24T14:48:55.879Z,101053.25
2022-10-24T14:51:39.536Z,101051.90
2022-10-24T14:54:20.080Z,101051.23
2022-10-24T14:56:48.729Z,101046.95
2022-10-24T14:59:30.032Z,101049.26
2022-10-24T15:02:05.348Z,101059.16
2022-10-24T15:04:48.947Z,101067.70
2022-10-24T15:07:32.345Z,101067.17
2022-10-24T15:10:02.148Z,101072.69
2022-10-24T15:12:55.714Z,101076.02
2022-10-24T15:15:34.591Z,101079.02
2022-10-24T15:18:17.965Z,101084.44
2022-10-24T15:20:48.323Z,101086.42
2022-10-24T15:23:32.126Z,101089.24
2022-10-24T15:26:13.039Z,101095.51
2022-10-24T15:29:09.495Z,101100.17
2022-10-24T15:31:41.497Z,101099.61
2022-10-24T15:34:13.682Z,101102.55
2022-10-24T15:36:44.141Z,101099.48
2022-10-24T15:39:13.262Z,101099.14
2022-10-24T15:41:42.229Z,101098.64
2022-10-24T15:44:16.157Z,101097.83
2022-10-24T15:46:46.639Z,101094.41
2022-10-24T15:49:16.059Z,101096.55
2022-10-24T15:51:49.967Z,101097.61
2022-10-24T15:54:22.173Z,101097.43
2022-10-24T15:56:51.639Z,101096.26
2022-10-24T15:59:21.022Z,101095.29
2022-10-24T16:01:54.431Z,101091.72
2022-10-24T16:04:23.558Z,101092.77
2022-10-24T16:06:52.938Z,101103.33
2022-10-24T16:09:26.085Z,101109.42
2022-10-24T16:11:55.395Z,101114.45
2022-10-24T16:14:27.127Z,101122.94
2022-10-24T16:17:01.433Z,101134.43
2022-10-24T16:19:30.173Z,101141.23
2022-10-24T16:22:02.476Z,101147.19
2022-10-24T16:24:31.106Z,101150.18
2022-10-24T16:26:59.456Z,101155.78
2022-10-24T16:29:27.965Z,101155.52
2022-10-24T16:31:56.425Z,101156.63
2022-10-24T16:34:25.303Z,101162.19
2022-10-24T16:36:57.231Z,101164.09
2022-10-24T16:39:25.816Z,101170.20
2022-10-24T16:41:59.787Z,101170.60
2022-10-24T16:44:28.933Z,101171.02
2022-10-24T16:46:57.482Z,101174.65
2022-10-24T16:49:25.872Z,101173.78
2022-10-24T16:51:54.145Z,101170.89
2022-10-24T16:54:23.786Z,101171.42
2022-10-24T16:56:54.072Z,101169.90
2022-10-24T16:59:22.928Z,101165.80
2022-10-24T17:01:51.894Z,101164.95
2022-10-24T17:04:20.411Z,101166.39
2022-10-24T17:06:49.107Z,101163.73
2022-10-24T17:09:17.499Z,101155.98
2022-10-24T17:11:46.691Z,101150.62
2022-10-24T17:14:15.636Z,101155.30
2022-10-24T17:16:45.213Z,101150.14
2022-10-24T17:19:16.645Z,101141.60
2022-10-24T17:21:51.294Z,101147.30
2022-10-24T17:24:22.620Z,101142.95
2022-10-24T17:26:52.823Z,101132.73
2022-10-24T17:29:30.095Z,101136.21
2022-10-24T17:31:59.945Z,101134.70
2022-10-24T17:34:28.859Z,101129.39
2022-10-24T17:37:09.436Z,101135.31
2022-10-24T17:39:52.849Z,101132.95
2022-10-24T17:42:22.227Z,101128.48
2022-10-24T17:44:51.076Z,101126.63
2022-10-24T17:47:19.636Z,101128.40
2022-10-24T17:49:48.129Z,101130.89
2022-10-24T17:52:23.511Z,101131.29
2022-10-24T17:54:53.260Z,101133.04
2022-10-24T17:57:21.995Z,101139.15
2022-10-24T17:59:50.642Z,101143.20
2022-10-24T18:02:19.137Z,101146.52
2022-10-24T18:04:47.823Z,101148.27
2022-10-24T18:07:16.306Z,101156.27
2022-10-24T18:09:45.102Z,101161.52
2022-10-24T18:12:13.610Z,101168.48
2022-10-24T18:14:42.161Z,101172.36
2022-10-24T18:17:10.650Z,101172.41
2022-10-24T18:19:39.437Z,101177.12
2022-10-24T18:22:07.966Z,101181.46
2022-10-24T18:24:36.728Z,101179.54
2022-10-24T18:27:05.084Z,101182.50
2022-10-24T18:29:33.479Z,101187.55
2022-10-24T18:32:01.896Z,101184.93
2022-10-24T18:34:30.835Z,101189.77
2022-10-24T18:36:59.141Z,101192.42
2022-10-24T18:39:29.945Z,101191.54
2022-10-24T18:42:31.152Z,101197.08
2022-10-24T18:44:59.922Z,101196.27
2022-10-24T18:47:28.937Z,101200.31
2022-10-24T18:49:58.613Z,101200.75
2022-10-24T18:52:42.433Z,101202.51
2022-10-24T18:55:21.497Z,101210.38
2022-10-24T18:57:51.272Z,101214.13
2022-10-24T19:00:23.250Z,101215.42
2022-10-24T19:03:13.086Z,101222.58
2022-10-24T19:06:00.472Z,101229.75
2022-10-24T19:08:28.981Z,101228.11
2022-10-24T19:10:59.018Z,101229.20
2022-10-24T19:13:28.931Z,101236.04
2022-10-24T19:16:05.357Z,101236.66
2022-10-24T19:18:35.257Z,101236.77
2022-10-24T19:21:06.336Z,101236.00
2022-10-24T19:23:35.460Z,101239.21
2022-10-24T19:26:04.020Z,101237.95
2022-10-24T19:28:32.415Z,101234.42
2022-10-24T19:31:00.855Z,101232.13
2022-10-24T19:33:31.228Z,101235.52
2022-10-24T19:36:04.276Z,101239.63
2022-10-24T19:38:33.184Z,101251.73
2022-10-24T19:41:02.075Z,101248.48
2022-10-24T19:43:33.637Z,101252.54
2022-10-24T19:46:19.756Z,101255.70
2022-10-24T19:48:54.049Z,101252.95
2022-10-24T19:51:24.071Z,101250.00
2022-10-24T19:53:53.505Z,101250.46
2022-10-24T19:56:25.640Z,101248.41
2022-10-24T19:58:55.488Z,101253.44
2022-10-24T20:01:26.396Z,101257.27
2022-10-24T20:03:56.855Z,101254.34
2022-10-24T20:06:27.980Z,101248.61
2022-10-24T20:08:56.474Z,101250.39
2022-10-24T20:11:25.278Z,101254.08
2022-10-24T20:13:57.181Z,101257.96
2022-10-24T20:16:25.560Z,101261.83
2022-10-24T20:18:54.188Z,101268.46
2022-10-24T20:21:22.585Z,101270.27
2022-10-24T20:23:51.040Z,101266.50
2022-10-24T20:26:22.821Z,101268.79
2022-10-24T20:28:53.669Z,101270.93
2022-10-24T20:31:40.211Z,101269.39
2022-10-24T20:34:12.986Z,101269.09
2022-10-24T20:36:45.602Z,101266.86
2022-10-24T20:39:15.936Z,101267.73
2022-10-24T20:41:44.643Z,101265.00
2022-10-24T20:44:13.483Z,101263.80
2022-10-24T20:46:42.310Z,101269.36
2022-10-24T20:49:10.807Z,101274.09
2022-10-24T20:51:45.415Z,101285.25
2022-10-24T20:54:13.819Z,101285.97
2022-10-24T20:56:42.865Z,101287.20
2022-10-24T20:59:14.595Z,101283.41
2022-10-24T21:01:43.083Z,101280.84
2022-10-24T21:04:12.854Z,101285.73
2022-10-24T21:06:43.069Z,101285.58
2022-10-24T21:09:11.595Z,101287.01
2022-10-24T21:11:40.566Z,101286.52
2022-10-24T21:14:12.702Z,101286.66
2022-10-24T21:16:41.088Z,101287.87
2022-10-24T21:19:09.611Z,101289.27
2022-10-24T21:21:37.896Z,101289.81
2022-10-24T21:24:07.054Z,101295.91
2022-10-24T21:26:39.114Z,101291.04
2022-10-24T21:29:27.933Z,101287.21
2022-10-24T21:31:56.657Z,101286.36
2022-10-24T21:34:26.847Z,101282.73
2022-10-24T21:36:57.746Z,101279.96
2022-10-24T21:39:31.465Z,101272.15
2022-10-24T21:42:00.150Z,101268.66
2022-10-24T21:44:29.205Z,101273.88
2022-10-24T21:46:58.088Z,101275.44
2022-10-24T21:49:26.813Z,101274.09
2022-10-24T21:51:56.714Z,101269.43
2022-10-24T21:54:26.851Z,101269.27
2022-10-24T21:56:55.414Z,101267.38
2022-10-24T21:59:24.741Z,101265.81
2022-10-24T22:01:53.893Z,101269.64
2022-10-24T22:04:23.034Z,101272.23
2022-10-24T22:06:51.428Z,101277.29
2022-10-24T22:09:24.751Z,101279.05
2022-10-24T22:11:55.546Z,101287.41
2022-10-24T22:14:24.297Z,101288.80
2022-10-24T22:16:52.668Z,101296.42
2022-10-24T22:19:24.378Z,101300.21
2022-10-24T22:21:54.131Z,101303.86
2022-10-24T22:24:24.846Z,101303.65
2022-10-24T22:26:55.052Z,101312.88
2022-10-24T22:29:25.808Z,101315.67
2022-10-24T22:31:55.459Z,101319.70
2022-10-24T22:34:26.372Z,101317.29
2022-10-24T22:37:16.056Z,101308.08
2022-10-24T22:39:44.676Z,101299.39
2022-10-24T22:42:15.951Z,101292.91
2022-10-24T22:44:46.326Z,101290.64
2022-10-24T22:47:37.520Z,101291.50
2022-10-24T22:50:39.034Z,101290.41
2022-10-24T22:53:15.838Z,101288.33
2022-10-24T22:56:28.176Z,101283.69
2022-10-24T22:58:56.814Z,101288.45
2022-10-24T23:01:31.173Z,101297.86
2022-10-24T23:04:22.539Z,101310.23
2022-10-24T23:06:57.697Z,101314.40
2022-10-24T23:09:26.670Z,101318.27
2022-10-24T23:11:55.698Z,101315.86
2022-10-24T23:14:24.260Z,101314.66
2022-10-24T23:17:00.971Z,101319.36
2022-10-24T23:19:31.787Z,101323.52
2022-10-24T23:22:24.968Z,101329.91
2022-10-24T23:24:55.998Z,101332.19
2022-10-24T23:27:27.125Z,101332.40
2022-10-24T23:29:56.669Z,101329.11
2022-10-24T23:32:39.039Z,101328.61
2022-10-24T23:35:08.559Z,101327.23
2022-10-24T23:37:43.078Z,101324.96
2022-10-24T23:40:37.370Z,101324.30
2022-10-24T23:43:06.468Z,101318.23
2022-10-24T23:45:38.858Z,101314.80
2022-10-24T23:48:39.590Z,101312.90
2022-10-24T23:51:16.009Z,101311.52
2022-10-24T23:53:53.984Z,101308.93
2022-10-24T23:56:25.055Z,101309.14
2022-10-24T23:58:54.442Z,101311.57
